Time;durP1;ratioP1;P1;durP2;ratioP2;P2;SDS_P1;SDS_P2;PMS_P1;PMS_P2;Temp;Humidity;BMP_temperature;BMP_pressure;BME280_temperature;BME280_humidity;BME280_pressure;Samples;Min_cycle;Max_cycle;Signal;HPM_P1;HPM_P2
2021/08/02 08:55:12;;;;;;;1.22;1.07;;;;;;;19.10;77.43;97371.89;1890266;76;26205;-65
2021/08/02 08:57:39;;;;;;;1.70;1.02;;;;;;;19.09;77.42;97381.20;1861741;77;20966;-69
2021/08/02 09:00:09;;;;;;;1.20;1.10;;;;;;;19.10;77.34;97396.32;1861457;77;22201;-66
2021/08/02 09:02:37;;;;;;;1.87;1.20;;;;;;;19.07;77.34;97401.13;1842066;77;20876;-69
2021/08/02 09:05:06;;;;;;;5.58;1.40;;;;;;;19.03;77.31;97396.78;1828782;77;20818;-66
2021/08/02 09:07:39;;;;;;;1.77;1.50;;;;;;;18.99;77.40;97392.63;1861504;77;20927;-68
2021/08/02 09:10:10;;;;;;;2.05;1.82;;;;;;;18.95;77.33;97395.06;1861701;77;20890;-70
2021/08/02 09:12:53;;;;;;;1.50;1.40;;;;;;;18.89;77.43;97398.62;1861447;77;21159;-69
2021/08/02 09:15:40;;;;;;;2.02;1.60;;;;;;;18.85;77.62;97408.64;1861407;77;20923;-71
2021/08/02 09:18:09;;;;;;;2.37;1.80;;;;;;;18.85;77.86;97408.64;1861706;77;20924;-65
2021/08/02 09:20:37;;;;;;;2.22;1.82;;;;;;;18.91;78.02;97417.28;1861585;77;20884;-71
2021/08/02 09:23:13;;;;;;;2.42;2.20;;;;;;;18.91;78.08;97413.97;1861586;77;20864;-67
2021/08/02 09:25:54;;;;;;;2.55;2.33;;;;;;;18.90;78.01;97421.92;1861585;77;21170;-73
2021/08/02 09:28:23;;;;;;;3.75;2.40;;;;;;;18.85;77.95;97422.20;1861452;77;20915;-68
2021/08/02 09:31:01;;;;;;;3.00;2.30;;;;;;;18.79;78.03;97425.00;1861639;77;21458;-66
2021/08/02 09:33:48;;;;;;;4.35;2.70;;;;;;;18.75;78.35;97411.91;1862192;77;20993;-68
2021/08/02 09:36:16;;;;;;;3.35;2.67;;;;;;;18.78;78.55;97421.27;1861575;77;20859;-68
2021/08/02 09:38:44;;;;;;;3.00;2.50;;;;;;;18.77;78.31;97415.05;1861552;77;21108;-67
2021/08/02 09:41:20;;;;;;;3.17;2.65;;;;;;;18.73;78.49;97416.91;1861742;77;21406;-69
2021/08/02 09:43:51;;;;;;;2.92;2.67;;;;;;;18.76;78.79;97424.34;1861389;77;21006;-64
2021/08/02 09:46:18;;;;;;;3.42;2.60;;;;;;;18.83;78.70;97434.55;1861523;77;21006;-72
2021/08/02 09:48:46;;;;;;;3.60;2.60;;;;;;;18.88;78.82;97437.77;1828987;77;20897;-70
2021/08/02 09:51:19;;;;;;;3.35;2.87;;;;;;;18.94;78.66;97437.69;1861606;77;21115;-64
2021/08/02 09:53:52;;;;;;;3.55;2.47;;;;;;;18.97;78.55;97442.41;1857216;77;20821;-72
2021/08/02 09:56:23;;;;;;;4.10;2.70;;;;;;;19.01;78.27;97442.47;1850393;77;20892;-68
2021/08/02 09:58:51;;;;;;;3.45;2.35;;;;;;;19.03;77.94;97450.47;1850405;77;20962;-69
2021/08/02 10:01:19;;;;;;;4.85;2.80;;;;;;;19.11;77.68;97448.69;1850512;77;20947;-65
2021/08/02 10:03:48;;;;;;;3.02;2.55;;;;;;;19.25;77.47;97446.24;1850426;77;21113;-65
2021/08/02 10:06:15;;;;;;;2.92;2.40;;;;;;;19.36;76.71;97451.92;1849900;77;21431;-68
2021/08/02 10:08:44;;;;;;;2.83;1.90;;;;;;;19.45;75.86;97449.75;1849724;77;20868;-69
2021/08/02 10:11:12;;;;;;;6.50;2.40;;;;;;;19.56;75.08;97442.57;1850059;77;21470;-72
2021/08/02 10:13:43;;;;;;;3.60;2.10;;;;;;;19.66;74.37;97458.28;1849708;77;20981;-64
2021/08/02 10:16:14;;;;;;;2.40;2.20;;;;;;;19.74;74.36;97459.39;1847440;77;21154;-71
2021/08/02 10:18:41;;;;;;;3.17;2.30;;;;;;;19.81;74.16;97465.52;1819595;77;20932;-65
2021/08/02 10:21:10;;;;;;;3.33;1.90;;;;;;;19.98;74.25;97465.03;1847074;77;20865;-66
2021/08/02 10:23:38;;;;;;;2.30;1.80;;;;;;;20.08;73.06;97457.63;1849863;77;21299;-65
2021/08/02 10:26:29;;;;;;;2.00;1.75;;;;;;;20.18;72.76;97465.18;1849900;77;20861;-65
2021/08/02 10:28:58;;;;;;;4.00;1.82;;;;;;;20.33;70.85;97460.75;1849890;77;21108;-70
2021/08/02 10:31:27;;;;;;;3.12;2.10;;;;;;;20.45;70.27;97462.69;1849899;77;21427;-62
2021/08/02 10:33:55;;;;;;;5.37;1.98;;;;;;;20.45;69.36;97459.97;1849030;77;20947;-64
2021/08/02 10:36:22;;;;;;;3.75;2.17;;;;;;;20.44;69.24;97458.99;1849757;77;20880;-66
2021/08/02 10:38:52;;;;;;;2.52;1.65;;;;;;;20.51;69.11;97456.94;1838587;77;20876;-66
2021/08/02 10:41:30;;;;;;;2.08;1.50;;;;;;;20.63;68.26;97455.36;1818326;79;21107;-73
2021/08/02 10:44:13;;;;;;;3.58;1.35;;;;;;;20.86;67.99;97453.34;1817875;78;21539;-60
2021/08/02 10:46:41;;;;;;;2.15;1.42;;;;;;;20.99;66.32;97458.73;1817942;79;20935;-62
2021/08/02 10:49:13;;;;;;;2.20;1.42;;;;;;;20.97;66.08;97480.11;1817889;79;21540;-63
2021/08/02 10:51:55;;;;;;;2.95;1.60;;;;;;;20.85;65.54;97476.25;1818058;78;21489;-63
2021/08/02 10:54:22;;;;;;;2.85;1.30;;;;;;;20.84;66.54;97473.34;1827758;77;21121;-69
